Terminal Aerodrome Forecast
Issued by NWS

Home | Current Version | Previous Version | Text Only | Print | Product List | Glossary Off
Versions: 1 2 3 4 5 6 7 8 9 10 11 12 13 14 15 16 17 18 19 20

000
FTUS43 KGRB 211400 AAA
TAFRHI
TAF AMD
KRHI 211411Z 2114/2212 05006KT P6SM OVC009
     FM211530 06006KT P6SM OVC012
     FM211700 09006KT P6SM SCT020
     FM211900 10004KT P6SM SKC=

USA.gov is the U.S. government's official web portal to all federal, state and local government web resources and services.